createdAt,value
2019-01-20T00:00:37.229Z,0
2019-01-20T00:01:26.152Z,0
2019-01-20T00:03:51.962Z,0
2019-01-20T00:19:37.100Z,0
2019-01-20T00:23:30.643Z,0
2019-01-20T00:24:21.867Z,0
2019-01-20T00:27:49.498Z,0
2019-01-20T00:28:38.085Z,0
2019-01-20T00:29:26.776Z,0
2019-01-20T00:30:15.177Z,0
2019-01-20T00:31:03.741Z,0
2019-01-20T00:31:52.335Z,0
2019-01-20T00:32:41.129Z,0
2019-01-20T00:33:29.686Z,0
2019-01-20T00:34:18.310Z,0
2019-01-20T00:35:06.824Z,0
2019-01-20T00:35:55.559Z,0
2019-01-20T00:36:44.004Z,0
2019-01-20T00:37:32.783Z,0
2019-01-20T00:38:21.270Z,0
2019-01-20T00:42:47.601Z,0
2019-01-20T00:43:37.644Z,0
2019-01-20T00:47:30.082Z,0
2019-01-20T00:48:19.077Z,0
2019-01-20T00:49:09.505Z,0
2019-01-20T00:49:58.687Z,0
2019-01-20T00:50:47.194Z,0
2019-01-20T00:51:35.648Z,0
2019-01-20T00:52:23.820Z,0
2019-01-20T01:00:47.063Z,0
2019-01-20T01:01:35.279Z,0
2019-01-20T01:02:24.369Z,0
2019-01-20T01:03:12.592Z,0
2019-01-20T01:04:01.120Z,0
2019-01-20T01:04:49.570Z,0
2019-01-20T01:05:38.595Z,0
2019-01-20T01:06:27.147Z,0
2019-01-20T01:07:15.376Z,0
2019-01-20T01:08:04.133Z,0
2019-01-20T01:08:52.710Z,0
2019-01-20T01:09:41.348Z,0
2019-01-20T01:10:29.957Z,0
2019-01-20T01:11:18.567Z,0
2019-01-20T01:12:07.384Z,0
2019-01-20T01:12:55.683Z,0
2019-01-20T01:13:44.221Z,0
2019-01-20T01:14:35.166Z,0
2019-01-20T01:20:30.061Z,0
2019-01-20T01:21:18.512Z,0
2019-01-20T01:22:06.922Z,0
2019-01-20T01:22:56.060Z,0
2019-01-20T01:26:08.287Z,0
2019-01-20T01:26:57.214Z,0
2019-01-20T01:32:57.615Z,0
2019-01-20T01:37:59.571Z,0
2019-01-20T01:38:48.477Z,0
2019-01-20T01:39:36.598Z,0
2019-01-20T01:43:55.367Z,0
2019-01-20T01:44:48.970Z,0
2019-01-20T01:45:49.926Z,0
2019-01-20T02:01:04.132Z,0
2019-01-20T02:01:56.771Z,0
2019-01-20T02:02:45.589Z,0
2019-01-20T02:10:56.810Z,0
2019-01-20T02:11:46.872Z,0
2019-01-20T02:12:33.872Z,0
2019-01-20T02:13:22.500Z,0
2019-01-20T02:14:11.340Z,0
2019-01-20T02:14:59.548Z,0
2019-01-20T02:15:48.242Z,0
2019-01-20T02:16:37.118Z,0
2019-01-20T02:17:25.684Z,0
2019-01-20T02:18:14.218Z,0
2019-01-20T02:19:02.428Z,0
2019-01-20T02:19:51.039Z,0
2019-01-20T02:20:39.690Z,0
2019-01-20T02:21:27.999Z,0
2019-01-20T02:22:16.596Z,0
2019-01-20T02:23:05.230Z,0
2019-01-20T02:23:53.863Z,0
2019-01-20T02:24:42.333Z,0
2019-01-20T02:25:31.194Z,0
2019-01-20T02:26:19.596Z,0
2019-01-20T02:27:08.075Z,0
2019-01-20T02:27:56.531Z,0
2019-01-20T02:28:47.448Z,0
2019-01-20T02:29:35.962Z,0
2019-01-20T02:30:24.315Z,0
2019-01-20T02:31:14.808Z,0
2019-01-20T02:32:03.306Z,0
2019-01-20T02:32:51.859Z,0
2019-01-20T02:33:40.610Z,0
2019-01-20T02:34:29.341Z,0
2019-01-20T02:35:17.679Z,0
2019-01-20T02:36:06.529Z,0
2019-01-20T02:36:54.523Z,0
2019-01-20T02:37:43.069Z,0
2019-01-20T02:38:31.816Z,0
2019-01-20T02:39:20.413Z,0
2019-01-20T02:40:09.006Z,0
2019-01-20T02:40:58.248Z,0
2019-01-20T02:41:46.393Z,0
2019-01-20T02:42:34.973Z,0
2019-01-20T02:43:23.495Z,0
2019-01-20T02:44:11.970Z,0
2019-01-20T02:45:00.686Z,0
2019-01-20T02:45:49.483Z,0
2019-01-20T02:46:37.815Z,0
2019-01-20T02:47:26.295Z,0
2019-01-20T02:48:15.213Z,0
2019-01-20T02:49:03.275Z,0
2019-01-20T02:49:51.935Z,0
2019-01-20T02:50:40.749Z,0
2019-01-20T02:51:28.928Z,0
2019-01-20T02:52:17.694Z,0
2019-01-20T02:53:06.072Z,0
2019-01-20T02:53:54.817Z,0
2019-01-20T02:54:43.308Z,0
2019-01-20T02:55:31.953Z,0
2019-01-20T02:56:20.650Z,0
2019-01-20T02:57:09.176Z,0
2019-01-20T02:57:57.547Z,0
2019-01-20T02:58:46.052Z,0
2019-01-20T02:59:35.277Z,0
2019-01-20T03:00:23.365Z,0
2019-01-20T03:01:12.053Z,0
2019-01-20T03:02:00.680Z,0
2019-01-20T03:02:49.021Z,0
2019-01-20T03:03:37.545Z,0
2019-01-20T03:04:26.460Z,0
2019-01-20T03:05:14.857Z,0
2019-01-20T03:06:03.391Z,0
2019-01-20T03:06:52.192Z,0
2019-01-20T03:07:40.478Z,0
2019-01-20T03:08:29.023Z,0
2019-01-20T03:09:17.461Z,0
2019-01-20T03:10:06.352Z,0
2019-01-20T03:10:54.882Z,0
2019-01-20T03:11:43.274Z,0
2019-01-20T03:12:31.683Z,0
2019-01-20T03:13:20.474Z,0
2019-01-20T03:14:09.036Z,0
2019-01-20T03:14:57.506Z,0
2019-01-20T03:15:46.315Z,0
2019-01-20T03:16:34.560Z,0
2019-01-20T03:17:23.401Z,0
2019-01-20T03:18:11.942Z,0
2019-01-20T03:19:00.861Z,0
2019-01-20T03:19:49.347Z,0
2019-01-20T03:20:37.791Z,0
2019-01-20T03:23:00.133Z,0
2019-01-20T03:23:48.721Z,0
2019-01-20T03:24:37.109Z,0
2019-01-20T03:25:26.115Z,0
2019-01-20T03:26:14.730Z,0
2019-01-20T03:27:02.801Z,0
2019-01-20T03:27:52.599Z,0
2019-01-20T03:28:41.091Z,0
2019-01-20T03:29:30.020Z,0
2019-01-20T03:30:18.131Z,0
2019-01-20T03:31:06.793Z,0
2019-01-20T03:31:55.511Z,0
2019-01-20T03:32:44.473Z,0
2019-01-20T03:33:32.629Z,0
2019-01-20T03:34:21.216Z,0
2019-01-20T03:35:09.720Z,0
2019-01-20T03:35:58.338Z,0
2019-01-20T03:36:47.444Z,0
2019-01-20T03:37:35.735Z,0
2019-01-20T03:38:24.271Z,0
2019-01-20T03:39:12.675Z,0
2019-01-20T03:40:01.516Z,0
2019-01-20T03:40:50.062Z,0
2019-01-20T03:41:38.810Z,0
2019-01-20T03:42:27.262Z,0
2019-01-20T03:43:15.739Z,0
2019-01-20T03:44:04.574Z,0
2019-01-20T03:44:53.088Z,0
2019-01-20T03:45:41.733Z,0
2019-01-20T03:46:30.551Z,0
2019-01-20T03:47:19.102Z,0
2019-01-20T03:48:07.986Z,0
2019-01-20T03:48:56.123Z,0
2019-01-20T03:49:45.098Z,0
2019-01-20T03:50:33.641Z,0
2019-01-20T03:51:22.002Z,0
2019-01-20T03:52:10.541Z,0
2019-01-20T03:52:59.455Z,0
2019-01-20T03:53:47.509Z,0
2019-01-20T03:54:36.293Z,0
2019-01-20T03:55:24.808Z,0
2019-01-20T03:56:13.468Z,0
2019-01-20T04:11:10.126Z,0
2019-01-20T04:11:58.772Z,0
2019-01-20T04:12:47.663Z,0
2019-01-20T04:13:36.084Z,0
2019-01-20T04:14:25.250Z,0
2019-01-20T04:15:13.721Z,0
2019-01-20T04:16:02.018Z,0
2019-01-20T04:16:50.599Z,0
2019-01-20T04:17:39.826Z,0
2019-01-20T04:18:28.851Z,0
2019-01-20T04:19:17.013Z,0
2019-01-20T04:20:06.093Z,0
2019-01-20T04:20:54.071Z,0
2019-01-20T04:21:42.846Z,0
2019-01-20T04:22:31.491Z,0
2019-01-20T04:23:20.365Z,0
2019-01-20T04:24:09.079Z,0
2019-01-20T04:24:58.579Z,0
2019-01-20T04:25:46.798Z,0
2019-01-20T04:26:35.236Z,0
2019-01-20T04:27:23.555Z,0
2019-01-20T04:28:12.950Z,0
2019-01-20T04:29:01.301Z,0
2019-01-20T05:54:57.533Z,0
2019-01-20T05:55:48.903Z,0
2019-01-20T05:58:06.628Z,0
2019-01-20T05:58:49.825Z,0
2019-01-20T05:59:32.160Z,0
2019-01-20T06:02:00.046Z,0
2019-01-20T06:07:37.528Z,0
2019-01-20T06:10:09.884Z,0
2019-01-20T06:14:07.921Z,0
2019-01-20T06:17:33.769Z,0
2019-01-20T06:18:15.629Z,0
2019-01-20T06:18:57.600Z,0
2019-01-20T06:19:39.611Z,0
2019-01-20T06:20:30.593Z,0
2019-01-20T06:21:11.006Z,0
2019-01-20T06:21:53.018Z,0
2019-01-20T06:22:33.444Z,0
2019-01-20T06:23:13.844Z,0
2019-01-20T06:23:54.236Z,0
2019-01-20T06:24:34.676Z,0
2019-01-20T06:25:16.601Z,0
2019-01-20T06:26:04.796Z,0
2019-01-20T06:26:46.119Z,0
2019-01-20T06:27:27.470Z,0
2019-01-20T06:28:08.800Z,0
2019-01-20T06:28:49.208Z,0
2019-01-20T06:32:50.530Z,0
2019-01-20T06:35:29.837Z,0
2019-01-20T06:36:31.401Z,0
2019-01-20T06:37:13.734Z,0
2019-01-20T06:37:55.071Z,0
2019-01-20T06:38:35.495Z,0
2019-01-20T06:41:37.338Z,0
2019-01-20T06:42:23.864Z,0
2019-01-20T06:43:07.082Z,0
2019-01-20T06:43:47.493Z,0
2019-01-20T06:44:27.896Z,0
2019-01-20T06:45:08.285Z,0
2019-01-20T06:45:49.623Z,0
2019-01-20T06:46:31.637Z,0
2019-01-20T06:47:13.675Z,0
2019-01-20T06:47:56.887Z,0
2019-01-20T06:48:37.302Z,0
2019-01-20T06:49:17.677Z,0
2019-01-20T06:49:59.015Z,4
2019-01-20T06:50:39.431Z,0
2019-01-20T06:51:21.385Z,0
2019-01-20T06:52:02.716Z,0
2019-01-20T06:52:43.129Z,4
2019-01-20T06:53:23.538Z,0
2019-01-20T06:54:03.968Z,4
2019-01-20T06:54:47.683Z,4
2019-01-20T06:55:28.090Z,0
2019-01-20T06:56:09.435Z,4
2019-01-20T06:56:49.859Z,0
2019-01-20T06:59:20.311Z,4
2019-01-20T07:00:08.715Z,4
2019-01-20T07:00:47.904Z,4
2019-01-20T07:01:29.052Z,8
2019-01-20T07:02:09.480Z,8
2019-01-20T07:02:50.807Z,8
2019-01-20T07:03:32.139Z,8
2019-01-20T07:04:12.582Z,8
2019-01-20T07:04:53.030Z,12
2019-01-20T07:05:33.386Z,12
2019-01-20T07:06:15.588Z,12
2019-01-20T07:06:56.116Z,12
2019-01-20T07:07:36.488Z,12
2019-01-20T07:08:18.557Z,12
2019-01-20T07:09:09.986Z,16
2019-01-20T07:10:06.322Z,20
2019-01-20T07:10:46.713Z,20
2019-01-20T07:11:27.144Z,20
2019-01-20T07:12:10.033Z,24
2019-01-20T07:12:52.672Z,28
2019-01-20T07:13:33.103Z,28
2019-01-20T07:14:32.337Z,32
2019-01-20T07:15:13.212Z,32
2019-01-20T07:15:53.644Z,36
2019-01-20T07:16:34.089Z,36
2019-01-20T07:17:14.517Z,40
2019-01-20T07:17:54.935Z,44
2019-01-20T07:18:35.350Z,48
2019-01-20T07:19:15.755Z,48
2019-01-20T07:19:59.647Z,52
2019-01-20T07:20:41.624Z,56
2019-01-20T07:21:22.023Z,60
2019-01-20T07:22:02.426Z,60
2019-01-20T07:22:42.830Z,64
2019-01-20T07:25:26.670Z,84
2019-01-20T07:26:12.128Z,84
2019-01-20T07:26:52.523Z,88
2019-01-20T07:27:32.979Z,92
2019-01-20T07:28:13.399Z,96
2019-01-20T07:28:54.408Z,104
2019-01-20T07:29:36.410Z,104
2019-01-20T07:30:16.847Z,112
2019-01-20T07:30:59.205Z,116
2019-01-20T07:31:39.614Z,120
2019-01-20T07:32:20.026Z,128
2019-01-20T07:33:00.427Z,132
2019-01-20T07:35:39.064Z,156
2019-01-20T07:36:20.931Z,164
2019-01-20T07:37:01.326Z,168
2019-01-20T07:37:43.499Z,172
2019-01-20T07:38:23.957Z,184
2019-01-20T07:39:04.347Z,188
2019-01-20T07:39:46.379Z,196
2019-01-20T07:40:26.782Z,200
2019-01-20T07:41:07.159Z,208
2019-01-20T07:41:47.559Z,212
2019-01-20T07:42:28.037Z,228
2019-01-20T07:43:08.387Z,232
2019-01-20T07:43:48.865Z,240
2019-01-20T07:44:31.066Z,248
2019-01-20T07:45:11.485Z,264
2019-01-20T07:45:51.889Z,280
2019-01-20T07:46:32.288Z,292
2019-01-20T07:47:12.686Z,312
2019-01-20T07:47:53.111Z,332
2019-01-20T07:48:33.523Z,340
2019-01-20T07:49:13.924Z,356
2019-01-20T07:49:54.331Z,364
2019-01-20T07:50:34.737Z,372
2019-01-20T07:51:15.126Z,388
2019-01-20T07:51:55.508Z,400
2019-01-20T07:52:35.916Z,416
2019-01-20T07:53:16.332Z,416
2019-01-20T07:53:57.661Z,416
2019-01-20T07:54:38.061Z,420
2019-01-20T07:55:18.487Z,428
2019-01-20T07:57:38.681Z,468
2019-01-20T07:58:26.798Z,468
2019-01-20T07:59:06.078Z,480
2019-01-20T07:59:46.497Z,488
2019-01-20T08:00:26.875Z,496
2019-01-20T08:01:07.321Z,488
2019-01-20T08:01:47.694Z,476
2019-01-20T08:02:28.085Z,480
2019-01-20T08:03:08.476Z,492
2019-01-20T08:03:49.433Z,500
2019-01-20T08:04:29.857Z,508
2019-01-20T08:05:10.253Z,520
2019-01-20T08:05:50.674Z,524
2019-01-20T08:08:11.426Z,556
2019-01-20T08:08:59.832Z,564
2019-01-20T08:09:48.235Z,572
2019-01-20T08:10:36.707Z,584
2019-01-20T08:11:25.459Z,596
2019-01-20T08:12:14.054Z,604
2019-01-20T08:14:33.910Z,636
2019-01-20T08:15:14.089Z,644
2019-01-20T08:15:54.463Z,656
2019-01-20T08:16:34.878Z,664
2019-01-20T08:17:15.343Z,668
2019-01-20T08:17:55.731Z,676
2019-01-20T08:18:36.132Z,684
2019-01-20T08:19:16.580Z,692
2019-01-20T08:19:57.020Z,700
2019-01-20T08:20:37.441Z,708
2019-01-20T08:21:17.874Z,712
2019-01-20T08:21:58.240Z,724
2019-01-20T08:24:02.192Z,740
2019-01-20T08:24:42.168Z,748
2019-01-20T08:27:39.516Z,776
2019-01-20T08:28:19.971Z,780
2019-01-20T08:29:00.449Z,788
2019-01-20T08:29:40.784Z,796
2019-01-20T08:30:21.206Z,800
2019-01-20T08:31:01.599Z,804
2019-01-20T08:31:43.776Z,812
2019-01-20T08:32:24.168Z,816
2019-01-20T08:33:04.604Z,820
2019-01-20T08:38:47.158Z,860
2019-01-20T08:39:40.861Z,868
2019-01-20T08:40:30.386Z,872
2019-01-20T08:43:48.895Z,884
2019-01-20T08:44:47.213Z,888
2019-01-20T09:00:28.483Z,964
2019-01-20T09:11:44.944Z,992
2019-01-20T09:12:35.528Z,996
2019-01-20T09:33:24.609Z,1028
2019-01-20T09:47:21.298Z,1040
2019-01-20T09:48:03.722Z,1040
2019-01-20T09:48:47.827Z,1040
2019-01-20T09:49:28.359Z,1040
2019-01-20T09:50:10.397Z,1036
2019-01-20T09:50:51.817Z,1036
2019-01-20T09:51:33.949Z,1036
2019-01-20T09:52:35.563Z,1032
2019-01-20T09:53:20.329Z,1036
2019-01-20T09:58:54.317Z,1040
2019-01-20T09:59:50.521Z,1040
2019-01-20T10:01:23.565Z,1036
2019-01-20T10:04:55.603Z,1044
2019-01-20T10:05:44.882Z,1040
2019-01-20T10:06:27.993Z,1044
2019-01-20T10:07:26.990Z,1040
2019-01-20T10:08:13.852Z,1040
2019-01-20T10:08:55.090Z,1040
2019-01-20T10:09:38.149Z,1036
2019-01-20T10:10:22.523Z,1040
2019-01-20T10:11:21.743Z,1040
2019-01-20T10:12:09.164Z,1040
2019-01-20T10:12:54.892Z,1036
2019-01-20T10:13:35.476Z,1036
2019-01-20T10:14:26.038Z,1036
2019-01-20T10:15:56.890Z,1040
2019-01-20T10:21:17.452Z,1032
2019-01-20T10:28:55.342Z,1024
2019-01-20T10:29:43.748Z,1024
2019-01-20T11:10:40.045Z,972
2019-01-20T11:20:34.713Z,960
2019-01-20T11:21:28.621Z,960
2019-01-20T11:30:55.097Z,948
2019-01-20T11:42:06.428Z,936
2019-01-20T11:54:39.403Z,924
2019-01-20T11:55:44.784Z,924
2019-01-20T12:07:00.012Z,904
2019-01-20T12:07:54.280Z,904
2019-01-20T12:13:58.458Z,892
2019-01-20T12:14:47.090Z,892
2019-01-20T12:22:20.915Z,884
2019-01-20T12:23:09.806Z,872
2019-01-20T12:23:57.840Z,880
2019-01-20T12:24:46.339Z,884
2019-01-20T12:25:34.940Z,880
2019-01-20T12:32:29.707Z,868
2019-01-20T12:36:15.085Z,868
2019-01-20T12:41:05.783Z,860
2019-01-20T12:41:54.069Z,856
2019-01-20T12:42:42.538Z,856
2019-01-20T12:43:30.932Z,856
2019-01-20T12:44:19.595Z,856
2019-01-20T12:45:09.126Z,852
2019-01-20T12:47:30.210Z,852
2019-01-20T12:48:18.914Z,852
2019-01-20T12:49:09.696Z,844
2019-01-20T12:49:58.207Z,840
2019-01-20T12:50:46.700Z,840
2019-01-20T12:51:35.723Z,836
2019-01-20T12:52:24.078Z,836
2019-01-20T12:56:20.630Z,832
2019-01-20T12:57:16.203Z,832
2019-01-20T12:58:09.039Z,828
2019-01-20T12:59:15.930Z,832
2019-01-20T13:00:12.074Z,828
2019-01-20T13:00:54.440Z,824
2019-01-20T13:01:37.526Z,824
2019-01-20T13:02:21.132Z,828
2019-01-20T13:03:03.549Z,824
2019-01-20T13:05:27.332Z,820
2019-01-20T13:06:15.903Z,820
2019-01-20T13:07:04.356Z,820
2019-01-20T13:07:53.080Z,820
2019-01-20T13:08:41.591Z,820
2019-01-20T13:09:31.910Z,816
2019-01-20T13:18:03.569Z,796
2019-01-20T13:18:52.536Z,792
2019-01-20T13:19:41.178Z,792
2019-01-20T13:20:29.530Z,792
2019-01-20T13:39:21.436Z,700
2019-01-20T13:40:16.859Z,696
2019-01-20T13:41:15.946Z,692
2019-01-20T13:47:29.032Z,660
2019-01-20T14:12:03.066Z,612
2019-01-20T14:15:58.534Z,592
2019-01-20T14:16:47.108Z,588
2019-01-20T14:17:35.653Z,584
2019-01-20T14:25:10.774Z,584
2019-01-20T14:49:33.630Z,504
2019-01-20T14:50:18.863Z,508
2019-01-20T14:50:59.296Z,504
2019-01-20T14:51:39.716Z,500
2019-01-20T14:52:21.772Z,504
2019-01-20T14:53:02.172Z,504
2019-01-20T14:53:42.599Z,500
2019-01-20T14:54:23.030Z,496
2019-01-20T14:55:03.459Z,488
2019-01-20T14:55:44.571Z,488
2019-01-20T14:56:24.964Z,484
2019-01-20T14:57:05.373Z,484
2019-01-20T14:57:45.751Z,488
2019-01-20T14:58:26.281Z,488
2019-01-20T14:59:06.680Z,488
2019-01-20T14:59:47.047Z,488
2019-01-20T15:00:27.505Z,488
2019-01-20T15:01:08.041Z,492
2019-01-20T15:01:50.322Z,496
2019-01-20T15:02:32.504Z,500
2019-01-20T15:03:12.898Z,512
2019-01-20T15:03:56.216Z,524
2019-01-20T15:04:36.656Z,528
2019-01-20T15:05:17.057Z,532
2019-01-20T15:05:57.907Z,536
2019-01-20T15:06:38.317Z,556
2019-01-20T15:07:21.240Z,568
2019-01-20T15:08:02.628Z,572
2019-01-20T15:08:43.053Z,592
2019-01-20T15:09:23.353Z,620
2019-01-20T15:10:03.766Z,648
2019-01-20T15:10:44.197Z,652
2019-01-20T15:11:24.749Z,652
2019-01-20T15:12:05.097Z,664
2019-01-20T15:12:45.537Z,668
2019-01-20T15:13:25.889Z,672
2019-01-20T15:14:06.365Z,660
2019-01-20T15:14:48.672Z,652
2019-01-20T15:15:29.164Z,656
2019-01-20T15:16:09.561Z,660
2019-01-20T15:16:51.693Z,656
2019-01-20T15:17:34.120Z,652
2019-01-20T15:18:14.819Z,648
2019-01-20T15:18:56.808Z,644
2019-01-20T15:19:37.237Z,636
2019-01-20T15:20:17.613Z,624
2019-01-20T15:20:58.134Z,612
2019-01-20T15:21:38.575Z,608
2019-01-20T15:22:19.019Z,596
2019-01-20T15:22:59.354Z,592
2019-01-20T15:23:39.726Z,580
2019-01-20T15:24:20.183Z,568
2019-01-20T15:25:00.620Z,560
2019-01-20T15:25:45.592Z,544
2019-01-20T15:26:26.019Z,532
2019-01-20T15:28:31.154Z,656
2019-01-20T15:29:19.658Z,768
2019-01-20T15:30:08.172Z,772
2019-01-20T15:30:56.876Z,608
2019-01-20T15:31:45.645Z,508
2019-01-20T15:32:34.516Z,460
2019-01-20T15:33:23.053Z,424
2019-01-20T15:34:11.254Z,388
2019-01-20T15:35:00.316Z,360
2019-01-20T15:35:48.840Z,336
2019-01-20T15:36:37.571Z,328
2019-01-20T15:37:25.825Z,316
2019-01-20T15:38:14.695Z,304
2019-01-20T15:39:03.125Z,284
2019-01-20T15:39:51.590Z,264
2019-01-20T15:40:40.126Z,248
2019-01-20T15:41:29.009Z,228
2019-01-20T15:42:17.397Z,216
2019-01-20T15:43:06.103Z,204
2019-01-20T15:43:55.069Z,196
2019-01-20T15:44:43.675Z,184
2019-01-20T15:45:31.707Z,180
2019-01-20T15:46:20.144Z,168
2019-01-20T15:47:10.795Z,156
2019-01-20T15:47:59.322Z,152
2019-01-20T15:48:47.815Z,144
2019-01-20T15:49:36.683Z,136
2019-01-20T15:50:25.439Z,128
2019-01-20T15:51:16.405Z,124
2019-01-20T15:52:04.932Z,116
2019-01-20T15:59:40.584Z,68
2019-01-20T16:00:28.738Z,64
2019-01-20T16:01:17.698Z,60
2019-01-20T16:02:06.332Z,56
2019-01-20T16:02:54.388Z,52
2019-01-20T16:03:43.155Z,48
2019-01-20T16:09:27.876Z,28
2019-01-20T16:10:15.951Z,24
2019-01-20T16:11:04.612Z,24
2019-01-20T16:11:53.104Z,20
2019-01-20T16:12:41.693Z,16
2019-01-20T16:13:30.394Z,12
2019-01-20T16:14:19.409Z,16
2019-01-20T16:15:08.368Z,12
2019-01-20T16:15:57.500Z,12
2019-01-20T16:16:45.438Z,12
2019-01-20T16:17:34.145Z,8
2019-01-20T16:18:22.852Z,8
2019-01-20T16:19:11.885Z,4
2019-01-20T16:20:00.236Z,4
2019-01-20T16:20:48.900Z,8
2019-01-20T16:21:37.426Z,4
2019-01-20T16:22:26.269Z,4
2019-01-20T16:23:14.378Z,4
2019-01-20T16:24:03.465Z,4
2019-01-20T16:24:52.389Z,4
2019-01-20T16:25:40.559Z,0
2019-01-20T16:26:29.415Z,4
2019-01-20T16:27:17.924Z,0
2019-01-20T16:28:06.426Z,0
2019-01-20T16:28:55.022Z,0
2019-01-20T16:29:43.667Z,4
2019-01-20T16:30:32.535Z,4
2019-01-20T16:31:20.989Z,0
2019-01-20T17:14:18.108Z,0
2019-01-20T17:15:06.471Z,0
2019-01-20T17:15:55.384Z,0
2019-01-20T17:16:43.995Z,0
2019-01-20T17:17:32.134Z,0
2019-01-20T17:18:21.081Z,0
2019-01-20T17:19:09.534Z,0
2019-01-20T17:19:58.386Z,0
2019-01-20T17:20:46.491Z,0
2019-01-20T17:21:35.384Z,0
2019-01-20T17:22:23.694Z,0
2019-01-20T17:23:12.097Z,0
2019-01-20T17:24:00.804Z,0
2019-01-20T17:24:49.533Z,0
2019-01-20T17:25:38.122Z,0
2019-01-20T17:26:26.662Z,0
2019-01-20T17:27:15.220Z,0
2019-01-20T17:28:04.166Z,0
2019-01-20T17:28:52.984Z,0
2019-01-20T17:29:41.075Z,0
2019-01-20T17:30:29.775Z,0
2019-01-20T17:31:18.597Z,0
2019-01-20T17:32:07.110Z,0
2019-01-20T17:32:55.801Z,0
2019-01-20T17:33:44.534Z,0
2019-01-20T17:34:32.578Z,0
2019-01-20T17:35:21.435Z,0
2019-01-20T17:36:10.157Z,0
2019-01-20T17:36:58.524Z,0
2019-01-20T17:37:47.376Z,0
2019-01-20T17:38:35.580Z,0
2019-01-20T17:39:24.309Z,0
2019-01-20T17:40:13.023Z,0
2019-01-20T17:41:01.256Z,0
2019-01-20T17:41:49.753Z,0
2019-01-20T17:42:38.384Z,0
2019-01-20T17:43:26.917Z,0
2019-01-20T17:44:18.686Z,0
2019-01-20T17:45:07.066Z,0
2019-01-20T17:45:55.540Z,0
2019-01-20T17:46:44.085Z,0
2019-01-20T17:47:32.922Z,0
2019-01-20T17:48:21.203Z,0
2019-01-20T17:49:09.712Z,0
2019-01-20T17:49:58.190Z,0
2019-01-20T17:50:46.715Z,0
2019-01-20T17:51:35.290Z,0
2019-01-20T17:52:24.001Z,0
2019-01-20T17:53:14.066Z,0
2019-01-20T17:54:02.876Z,0
2019-01-20T17:54:51.274Z,0
2019-01-20T17:55:39.667Z,0
2019-01-20T17:56:28.310Z,0
2019-01-20T17:57:16.968Z,0
2019-01-20T17:58:06.184Z,0
2019-01-20T17:58:54.041Z,0
2019-01-20T17:59:42.912Z,0
2019-01-20T18:00:31.053Z,0
2019-01-20T18:01:19.625Z,0
2019-01-20T18:02:08.569Z,0
2019-01-20T18:02:56.791Z,0
2019-01-20T18:03:45.434Z,0
2019-01-20T18:04:34.166Z,0
2019-01-20T18:05:23.027Z,0
2019-01-20T18:06:11.289Z,0
2019-01-20T18:07:00.459Z,0
2019-01-20T18:07:49.047Z,0
2019-01-20T18:08:37.396Z,0
2019-01-20T18:09:26.147Z,0
2019-01-20T18:10:15.016Z,0
2019-01-20T18:11:03.353Z,0
2019-01-20T18:11:51.680Z,0
2019-01-20T18:12:40.413Z,0
2019-01-20T18:13:28.814Z,0
2019-01-20T18:14:17.524Z,0
2019-01-20T18:15:06.431Z,0
2019-01-20T18:15:54.951Z,0
2019-01-20T18:16:42.978Z,0
2019-01-20T18:17:31.737Z,0
2019-01-20T18:18:20.228Z,0
2019-01-20T18:19:09.235Z,0
2019-01-20T18:19:57.526Z,0
2019-01-20T18:20:46.263Z,0
2019-01-20T18:21:34.848Z,0
2019-01-20T18:22:23.386Z,0
2019-01-20T18:23:12.471Z,0
2019-01-20T18:24:00.647Z,0
2019-01-20T18:24:49.289Z,0
2019-01-20T18:25:37.724Z,0
2019-01-20T18:26:26.301Z,0
2019-01-20T18:27:14.765Z,0
2019-01-20T18:28:03.916Z,0
2019-01-20T18:28:52.163Z,0
2019-01-20T18:29:40.960Z,0
2019-01-20T18:30:29.494Z,0
2019-01-20T18:31:17.733Z,0
2019-01-20T18:32:06.276Z,0
2019-01-20T18:32:55.011Z,0
2019-01-20T18:33:43.960Z,0
2019-01-20T18:34:31.927Z,0
2019-01-20T18:35:20.594Z,0
2019-01-20T18:36:11.053Z,0
2019-01-20T18:36:59.387Z,0
2019-01-20T18:37:48.065Z,0
2019-01-20T18:38:36.627Z,0
2019-01-20T18:39:25.195Z,0
2019-01-20T18:40:13.727Z,0
2019-01-20T18:41:02.533Z,0
2019-01-20T18:41:51.049Z,0
2019-01-20T18:42:39.854Z,0
2019-01-20T18:43:28.054Z,0
2019-01-20T18:44:16.693Z,0
2019-01-20T18:45:05.054Z,0
2019-01-20T18:45:53.752Z,0
2019-01-20T18:46:42.516Z,0
2019-01-20T18:47:31.330Z,0
2019-01-20T18:48:19.711Z,0
2019-01-20T18:49:08.022Z,0
2019-01-20T18:49:56.649Z,0
2019-01-20T18:50:45.196Z,0
2019-01-20T18:51:33.722Z,0
2019-01-20T18:52:22.963Z,0
2019-01-20T18:53:11.206Z,0
2019-01-20T18:53:59.784Z,0
2019-01-20T18:54:48.594Z,0
2019-01-20T18:55:37.014Z,0
2019-01-20T18:56:25.575Z,0
2019-01-20T18:57:14.331Z,0
2019-01-20T18:58:02.709Z,0
2019-01-20T18:58:51.225Z,0
2019-01-20T18:59:39.722Z,0
2019-01-20T19:00:28.992Z,0
2019-01-20T19:01:17.229Z,0
2019-01-20T19:02:05.981Z,0
2019-01-20T19:02:54.390Z,0
2019-01-20T19:03:43.023Z,0
2019-01-20T19:04:31.969Z,0
2019-01-20T19:05:20.099Z,0
2019-01-20T19:06:08.829Z,0
2019-01-20T19:06:57.159Z,0
2019-01-20T19:07:45.673Z,0
2019-01-20T19:08:34.640Z,0
2019-01-20T19:09:23.231Z,0
2019-01-20T19:10:11.598Z,0
2019-01-20T19:11:00.133Z,0
2019-01-20T19:11:48.712Z,0
2019-01-20T19:12:37.212Z,0
2019-01-20T19:13:25.757Z,0
2019-01-20T19:14:14.574Z,0
2019-01-20T19:15:02.952Z,0
2019-01-20T19:15:53.370Z,0
2019-01-20T19:16:42.095Z,0
2019-01-20T19:17:30.817Z,0
2019-01-20T19:18:19.408Z,0
2019-01-20T19:19:07.976Z,0
2019-01-20T19:19:56.253Z,0
2019-01-20T19:20:45.500Z,0
2019-01-20T19:21:34.078Z,0
2019-01-20T19:22:22.405Z,0
2019-01-20T19:23:10.691Z,0
2019-01-20T19:23:59.225Z,0
2019-01-20T19:24:47.900Z,0
2019-01-20T19:25:38.120Z,0
2019-01-20T19:26:27.088Z,0
2019-01-20T19:27:16.001Z,0
2019-01-20T19:28:04.255Z,0
2019-01-20T19:28:54.232Z,0
2019-01-20T19:29:41.948Z,0
2019-01-20T19:30:30.418Z,0
2019-01-20T19:31:19.266Z,0
2019-01-20T19:32:07.715Z,0
2019-01-20T19:32:56.621Z,0
2019-01-20T19:33:45.036Z,0
2019-01-20T19:34:34.011Z,0
2019-01-20T19:35:22.133Z,0
2019-01-20T19:36:10.648Z,0
2019-01-20T19:36:59.599Z,0
2019-01-20T19:37:48.054Z,0
2019-01-20T19:38:36.773Z,0
2019-01-20T19:39:25.550Z,0
2019-01-20T19:40:13.815Z,0
2019-01-20T19:41:02.648Z,0
2019-01-20T19:41:51.127Z,0
2019-01-20T19:42:40.149Z,0
2019-01-20T19:43:28.609Z,0
2019-01-20T19:44:17.481Z,0
2019-01-20T19:45:05.423Z,0
2019-01-20T19:45:54.058Z,0
2019-01-20T19:46:43.210Z,0
2019-01-20T19:47:32.015Z,0
2019-01-20T19:48:20.484Z,0
2019-01-20T19:49:08.984Z,0
2019-01-20T19:49:57.916Z,0
2019-01-20T19:50:46.744Z,0
2019-01-20T19:51:34.579Z,0
2019-01-20T19:52:23.818Z,0
2019-01-20T19:53:12.168Z,0
2019-01-20T19:54:00.899Z,0
2019-01-20T19:54:49.968Z,0
2019-01-20T19:55:38.544Z,0
2019-01-20T19:56:26.724Z,0
2019-01-20T19:57:16.002Z,0
2019-01-20T20:04:38.682Z,0
2019-01-20T20:10:10.510Z,0
2019-01-20T20:10:59.297Z,0
2019-01-20T20:11:48.370Z,0
2019-01-20T20:12:37.848Z,0
2019-01-20T20:13:27.074Z,0
2019-01-20T20:14:15.623Z,0
2019-01-20T20:15:03.466Z,0
2019-01-20T20:15:54.535Z,0
2019-01-20T20:16:43.202Z,0
2019-01-20T20:17:31.799Z,0
2019-01-20T20:18:20.365Z,0
2019-01-20T20:19:09.182Z,0
2019-01-20T20:19:57.857Z,0
2019-01-20T20:22:20.411Z,0
2019-01-20T20:23:09.841Z,0
2019-01-20T20:23:58.388Z,0
2019-01-20T20:24:46.923Z,0
2019-01-20T20:25:35.751Z,0
2019-01-20T20:26:24.461Z,0
2019-01-20T20:27:13.330Z,0
2019-01-20T20:28:01.858Z,0
2019-01-20T20:28:50.745Z,0
2019-01-20T20:29:39.059Z,0
2019-01-20T20:30:28.034Z,0
2019-01-20T20:31:16.809Z,0
2019-01-20T20:32:05.876Z,0
2019-01-20T20:32:54.220Z,0
2019-01-20T20:33:42.805Z,0
2019-01-20T20:34:31.522Z,0
2019-01-20T20:35:20.369Z,0
2019-01-20T20:36:09.029Z,0
2019-01-20T20:39:45.906Z,0
2019-01-20T20:40:34.351Z,0
2019-01-20T20:41:23.005Z,0
2019-01-20T20:42:11.909Z,0
2019-01-20T20:43:00.542Z,0
2019-01-20T20:43:49.440Z,0
2019-01-20T20:44:38.580Z,0
2019-01-20T20:45:27.281Z,0
2019-01-20T20:46:15.531Z,0
2019-01-20T21:07:55.408Z,0
2019-01-20T21:08:48.401Z,0
2019-01-20T21:09:33.257Z,0
2019-01-20T21:49:25.900Z,0
2019-01-20T21:50:19.056Z,0
2019-01-20T21:51:07.829Z,0
2019-01-20T21:51:58.437Z,0
2019-01-20T21:52:47.110Z,0
2019-01-20T21:53:37.136Z,0
2019-01-20T21:54:25.444Z,0
2019-01-20T21:55:14.312Z,0
2019-01-20T21:56:03.137Z,0
2019-01-20T21:56:51.436Z,0
2019-01-20T21:57:40.088Z,0
2019-01-20T21:58:28.954Z,0
2019-01-20T21:59:17.615Z,0
2019-01-20T22:00:06.391Z,0
2019-01-20T22:00:55.262Z,0
2019-01-20T22:01:43.606Z,0
